Time;durP1;ratioP1;P1;durP2;ratioP2;P2;SDS_P1;SDS_P2;PMS_P1;PMS_P2;Temp;Humidity;BMP_temperature;BMP_pressure;BME280_temperature;BME280_humidity;BME280_pressure;Samples;Min_cycle;Max_cycle;Signal;HPM_P1;HPM_P2
2021/05/11 00:00:49;;;;;;;11.45;10.25;;;;;;;14.49;94.11;99750.84;5048027;28;20071;-85
2021/05/11 00:03:16;;;;;;;11.50;10.27;;;;;;;14.43;94.06;99744.19;5051819;28;20048;-85
2021/05/11 00:05:43;;;;;;;13.57;10.95;;;;;;;14.37;94.43;99740.13;5054653;28;20105;-86
2021/05/11 00:08:10;;;;;;;13.85;11.60;;;;;;;14.42;94.99;99738.97;5058108;28;20166;-87
2021/05/11 00:10:36;;;;;;;13.18;10.35;;;;;;;14.43;94.85;99741.53;5058824;28;20111;-84
2021/05/11 00:13:06;;;;;;;12.60;10.63;;;;;;;14.48;95.59;99731.34;5046008;28;20049;-86
2021/05/11 00:15:34;;;;;;;12.65;10.57;;;;;;;14.45;95.00;99730.75;5066217;28;20044;-83
2021/05/11 00:18:03;;;;;;;12.13;10.75;;;;;;;14.43;94.94;99724.69;5069825;28;20075;-87
2021/05/11 00:20:35;;;;;;;13.90;11.90;;;;;;;14.36;95.07;99713.59;5047019;28;20049;-87
2021/05/11 00:23:03;;;;;;;12.77;10.77;;;;;;;14.38;94.76;99725.84;5072687;28;20071;-86
2021/05/11 00:25:29;;;;;;;15.15;12.45;;;;;;;14.37;95.33;99734.78;5072491;28;20087;-86
2021/05/11 00:27:56;;;;;;;16.23;12.80;;;;;;;14.38;95.96;99728.50;5073107;28;20037;-85
2021/05/11 00:30:22;;;;;;;16.10;12.40;;;;;;;14.45;96.32;99750.25;5044822;28;20041;-85
2021/05/11 00:32:49;;;;;;;16.17;13.00;;;;;;;14.46;96.01;99765.28;5055720;28;20050;-86
2021/05/11 00:35:17;;;;;;;15.68;13.43;;;;;;;14.38;96.01;99743.63;5061367;28;20084;-87
2021/05/11 00:37:44;;;;;;;15.35;12.93;;;;;;;14.43;96.87;99746.00;5046550;28;20044;-87
2021/05/11 00:40:14;;;;;;;16.75;13.70;;;;;;;14.38;96.87;99730.31;5045410;28;20075;-87
2021/05/11 00:42:41;;;;;;;17.98;14.40;;;;;;;14.34;97.04;99721.69;5047300;28;20061;-87
2021/05/11 00:45:13;;;;;;;17.65;13.75;;;;;;;14.17;96.97;99719.41;5045318;28;20081;-87
2021/05/11 00:47:41;;;;;;;20.10;15.10;;;;;;;14.09;97.78;99720.94;5047358;28;20458;-86
2021/05/11 00:50:12;;;;;;;20.75;15.68;;;;;;;14.11;98.88;99732.31;5049585;28;20048;-87
2021/05/11 00:52:41;;;;;;;19.00;15.38;;;;;;;14.07;99.88;99737.00;5045515;28;20128;-87
2021/05/11 00:55:10;;;;;;;19.05;15.18;;;;;;;14.01;100.00;99724.13;5045729;28;20052;-87
2021/05/11 00:57:37;;;;;;;21.23;15.68;;;;;;;13.93;100.00;99722.03;5050591;28;20099;-87
2021/05/11 01:00:08;;;;;;;21.13;16.17;;;;;;;13.93;100.00;99739.81;5049203;28;20076;-86
2021/05/11 01:02:37;;;;;;;22.50;16.58;;;;;;;13.88;100.00;99753.44;5039477;28;20772;-86
2021/05/11 01:05:06;;;;;;;20.83;15.68;;;;;;;13.79;100.00;99745.25;5049363;28;20052;-86
2021/05/11 01:07:35;;;;;;;24.38;16.98;;;;;;;13.78;100.00;99716.94;5055646;28;20053;-86
2021/05/11 01:10:04;;;;;;;25.65;17.63;;;;;;;13.72;100.00;99696.94;5062148;28;20041;-86
2021/05/11 01:12:32;;;;;;;24.77;17.48;;;;;;;13.67;100.00;99693.75;5053099;28;20055;-87
2021/05/11 01:14:58;;;;;;;23.27;17.35;;;;;;;13.67;100.00;99699.94;5052253;28;20053;-86
2021/05/11 01:17:34;;;;;;;25.67;17.42;;;;;;;13.66;100.00;99689.41;5031179;28;20777;-87
2021/05/11 01:20:04;;;;;;;26.20;18.00;;;;;;;13.63;100.00;99678.97;5049367;28;20048;-87
2021/05/11 01:23:10;;;;;;;28.55;18.48;;;;;;;13.63;100.00;99679.81;5046107;28;20039;-87
2021/05/11 01:25:39;;;;;;;29.10;18.90;;;;;;;13.65;100.00;99687.69;5032480;28;20056;-87
2021/05/11 01:31:19;;;;;;;31.88;20.55;;;;;;;13.57;100.00;99711.31;5049503;28;20057;-87
2021/05/11 01:45:45;;;;;;;34.53;21.38;;;;;;;13.32;100.00;99688.25;5047871;28;20049;-87
2021/05/11 01:50:23;;;;;;;36.10;21.45;;;;;;;13.30;100.00;99690.16;5055193;28;20048;-87
2021/05/11 02:22:42;;;;;;;32.70;20.13;;;;;;;13.34;100.00;99655.28;5069343;28;20045;-87
2021/05/11 02:25:13;;;;;;;30.73;19.85;;;;;;;13.40;100.00;99659.28;5067100;28;20051;-85
2021/05/11 02:27:46;;;;;;;30.77;19.55;;;;;;;13.32;100.00;99646.56;5062803;28;20052;-87
2021/05/11 02:30:18;;;;;;;28.98;18.98;;;;;;;13.26;100.00;99635.47;5068718;28;20229;-86
2021/05/11 02:32:45;;;;;;;29.67;18.52;;;;;;;13.20;100.00;99634.13;5068965;28;20032;-87
2021/05/11 02:35:15;;;;;;;29.20;19.02;;;;;;;13.17;100.00;99628.16;5060570;28;20057;-88
2021/05/11 02:37:56;;;;;;;29.05;18.48;;;;;;;13.12;100.00;99623.13;5054929;28;20075;-88
2021/05/11 02:40:25;;;;;;;25.23;16.08;;;;;;;13.13;100.00;99622.19;5070544;28;20058;-87
2021/05/11 02:42:58;;;;;;;20.33;13.27;;;;;;;13.09;100.00;99602.06;5070009;28;20589;-87
2021/05/11 02:45:26;;;;;;;17.77;11.93;;;;;;;13.16;100.00;99597.22;5071438;28;20052;-87
2021/05/11 02:47:58;;;;;;;16.77;11.50;;;;;;;13.13;100.00;99597.41;5073962;28;20064;-87
2021/05/11 02:50:33;;;;;;;17.10;12.00;;;;;;;13.10;100.00;99597.59;5074994;28;20037;-86
2021/05/11 02:53:04;;;;;;;18.75;12.43;;;;;;;13.11;100.00;99616.09;5068674;28;20049;-86
2021/05/11 02:55:31;;;;;;;17.70;11.70;;;;;;;13.14;100.00;99607.06;5073630;28;20093;-86
2021/05/11 02:57:59;;;;;;;13.38;9.23;;;;;;;13.15;100.00;99617.63;5072319;28;20117;-86
2021/05/11 03:00:28;;;;;;;15.52;10.60;;;;;;;13.14;100.00;99623.03;5075933;28;20063;-87
2021/05/11 03:02:56;;;;;;;14.43;9.70;;;;;;;13.12;100.00;99627.59;5068213;28;20124;-86
2021/05/11 03:05:25;;;;;;;12.73;9.85;;;;;;;13.14;100.00;99623.03;5074704;28;20053;-87
2021/05/11 03:07:58;;;;;;;15.18;9.38;;;;;;;13.10;100.00;99624.19;5056422;28;20061;-87
2021/05/11 03:10:31;;;;;;;13.05;9.52;;;;;;;13.14;100.00;99629.19;5066716;28;20040;-86
2021/05/11 03:13:01;;;;;;;7.28;6.22;;;;;;;13.12;100.00;99632.91;5074153;28;20052;-86
2021/05/11 03:15:34;;;;;;;8.23;5.60;;;;;;;12.99;100.00;99622.28;5067128;28;20040;-84
2021/05/11 03:18:01;;;;;;;9.05;6.80;;;;;;;12.92;100.00;99619.19;5064660;28;20468;-87
2021/05/11 03:20:36;;;;;;;9.40;7.20;;;;;;;12.92;100.00;99611.22;5057824;28;20046;-87
2021/05/11 03:23:02;;;;;;;12.98;8.00;;;;;;;12.96;100.00;99607.41;5053033;28;20049;-87
2021/05/11 03:25:28;;;;;;;13.32;8.95;;;;;;;12.96;100.00;99588.78;5039377;28;20084;-86
2021/05/11 03:27:57;;;;;;;12.43;8.48;;;;;;;13.08;100.00;99603.03;5050703;28;20045;-86
2021/05/11 03:30:23;;;;;;;9.57;7.82;;;;;;;13.03;100.00;99591.03;5069466;28;20056;-86
2021/05/11 03:32:55;;;;;;;11.38;8.23;;;;;;;13.08;100.00;99602.16;5069390;28;20049;-86
2021/05/11 03:35:23;;;;;;;11.68;8.48;;;;;;;13.09;100.00;99599.41;5055385;28;20201;-86
2021/05/11 03:37:50;;;;;;;10.20;8.02;;;;;;;13.08;100.00;99612.81;5070557;28;20067;-86
2021/05/11 03:40:24;;;;;;;10.48;8.35;;;;;;;13.11;100.00;99620.56;5011975;28;20041;-85
2021/05/11 03:43:19;;;;;;;12.60;8.88;;;;;;;13.09;100.00;99611.84;5033269;28;20044;-88
2021/05/11 03:45:50;;;;;;;10.90;8.60;;;;;;;13.15;100.00;99625.63;5033676;28;20110;-85
2021/05/11 03:48:20;;;;;;;11.20;8.50;;;;;;;13.16;100.00;99632.63;5035162;28;20061;-86
2021/05/11 03:50:48;;;;;;;11.35;8.23;;;;;;;13.15;100.00;99622.94;5033652;28;20077;-86
2021/05/11 03:53:22;;;;;;;13.07;8.45;;;;;;;13.17;100.00;99623.69;5002550;28;20081;-86
2021/05/11 03:55:55;;;;;;;11.20;8.32;;;;;;;13.19;100.00;99615.63;5030774;28;20046;-86
2021/05/11 03:58:28;;;;;;;11.43;8.30;;;;;;;13.17;100.00;99612.22;5038321;28;20040;-86
2021/05/11 04:01:00;;;;;;;12.05;8.23;;;;;;;13.14;100.00;99591.13;5062076;28;20033;-86
2021/05/11 04:03:30;;;;;;;13.63;8.48;;;;;;;13.11;100.00;99596.66;5062074;28;20064;-84
2021/05/11 04:05:59;;;;;;;13.20;9.23;;;;;;;13.04;100.00;99582.09;5068786;28;20045;-86
2021/05/11 04:16:44;;;;;;;13.57;9.32;;;;;;;13.17;100.00;99606.91;5049208;28;20046;-86
2021/05/11 04:19:27;;;;;;;13.23;9.43;;;;;;;13.26;100.00;99611.56;5054644;28;20105;-86
2021/05/11 04:21:58;;;;;;;12.45;9.18;;;;;;;13.29;100.00;99600.72;5047928;28;20084;-87
2021/05/11 04:24:29;;;;;;;11.63;9.15;;;;;;;13.31;100.00;99594.34;5044213;28;20055;-85
2021/05/11 04:26:56;;;;;;;10.82;8.82;;;;;;;13.34;100.00;99602.09;5049771;28;20069;-86
2021/05/11 04:29:29;;;;;;;11.63;9.23;;;;;;;13.44;100.00;99604.94;5059479;28;20049;-85
2021/05/11 04:32:09;;;;;;;12.40;9.30;;;;;;;13.51;100.00;99608.88;5058486;28;20053;-86
2021/05/11 04:34:39;;;;;;;13.43;10.13;;;;;;;13.53;100.00;99606.13;5039091;28;20048;-86
2021/05/11 04:37:08;;;;;;;13.90;10.02;;;;;;;13.51;100.00;99602.72;5054636;28;20147;-86
2021/05/11 04:39:35;;;;;;;15.27;10.75;;;;;;;13.56;100.00;99590.75;5059807;28;20044;-86
2021/05/11 04:42:02;;;;;;;15.70;12.18;;;;;;;13.60;100.00;99586.94;5068274;28;20064;-85
2021/05/11 04:44:51;;;;;;;14.25;10.20;;;;;;;13.58;100.00;99566.72;5063617;28;20041;-86
2021/05/11 04:47:28;;;;;;;14.32;11.02;;;;;;;13.62;100.00;99566.38;5066519;28;20104;-85
2021/05/11 04:50:02;;;;;;;15.90;10.65;;;;;;;13.53;100.00;99556.44;5069733;28;20128;-86
2021/05/11 04:52:42;;;;;;;13.40;10.25;;;;;;;13.55;100.00;99549.16;5044591;28;20056;-85
2021/05/11 04:55:12;;;;;;;12.45;9.82;;;;;;;13.55;100.00;99556.28;5067751;28;20069;-85
2021/05/11 04:57:39;;;;;;;12.52;9.82;;;;;;;13.55;100.00;99549.16;5075540;28;20028;-84
2021/05/11 05:00:09;;;;;;;12.43;9.48;;;;;;;13.66;100.00;99559.88;5064259;28;20069;-85
2021/05/11 05:02:40;;;;;;;15.80;10.05;;;;;;;13.76;100.00;99559.19;5074184;28;20090;-85
2021/05/11 05:05:07;;;;;;;12.55;9.55;;;;;;;13.87;100.00;99561.91;5069267;28;20033;-85
2021/05/11 05:07:38;;;;;;;11.38;9.40;;;;;;;14.04;100.00;99574.84;5072447;28;20045;-85
2021/05/11 05:10:06;;;;;;;13.75;9.77;;;;;;;14.22;100.00;99578.78;5074589;28;20048;-84
2021/05/11 05:12:35;;;;;;;14.10;9.43;;;;;;;14.36;100.00;99577.75;5071903;28;20060;-85
2021/05/11 05:15:06;;;;;;;13.27;10.02;;;;;;;14.46;99.75;99575.28;5062549;28;20060;-85
2021/05/11 05:17:36;;;;;;;11.48;9.05;;;;;;;14.50;99.32;99588.25;5059628;28;20151;-85
2021/05/11 05:20:15;;;;;;;14.65;9.32;;;;;;;14.48;98.91;99592.00;5041789;28;20091;-85
2021/05/11 05:22:43;;;;;;;12.95;10.02;;;;;;;14.51;98.96;99597.09;5059207;28;20040;-85
2021/05/11 05:25:13;;;;;;;12.45;10.20;;;;;;;14.55;98.65;99595.88;5053877;28;20120;-86
2021/05/11 05:27:56;;;;;;;15.15;10.70;;;;;;;14.67;98.77;99606.47;5056587;28;20056;-86
2021/05/11 05:30:24;;;;;;;15.05;11.57;;;;;;;14.74;98.73;99622.84;5060192;28;20400;-86
2021/05/11 05:32:57;;;;;;;16.70;11.65;;;;;;;14.79;98.25;99626.00;5052365;28;20102;-86
2021/05/11 05:35:25;;;;;;;17.35;12.63;;;;;;;14.90;97.51;99631.38;5051231;28;20072;-86
2021/05/11 05:37:52;;;;;;;17.52;13.10;;;;;;;14.95;96.61;99625.69;5047498;28;20112;-86
2021/05/11 05:40:21;;;;;;;16.67;12.88;;;;;;;15.00;96.15;99640.34;5060133;28;20029;-87
2021/05/11 05:42:50;;;;;;;18.90;14.00;;;;;;;15.06;95.26;99626.53;5065425;28;20088;-87
2021/05/11 05:45:21;;;;;;;14.38;12.23;;;;;;;15.14;93.91;99609.09;5064861;28;20055;-87
2021/05/11 05:47:51;;;;;;;15.90;12.23;;;;;;;15.22;93.07;99604.00;5061479;28;20045;-86
2021/05/11 05:50:25;;;;;;;15.60;12.57;;;;;;;15.27;92.85;99607.16;5059616;28;20110;-86
2021/05/11 05:53:03;;;;;;;16.10;12.80;;;;;;;15.26;92.83;99598.34;5068586;28;20055;-87
2021/05/11 05:55:30;;;;;;;20.52;12.95;;;;;;;15.15;93.66;99597.44;5049665;28;20072;-86
2021/05/11 05:57:58;;;;;;;16.70;12.25;;;;;;;15.04;95.13;99592.97;5067320;28;20045;-85
2021/05/11 06:00:25;;;;;;;16.27;12.32;;;;;;;15.04;94.22;99582.31;5069611;28;20172;-86
2021/05/11 06:02:55;;;;;;;14.35;11.45;;;;;;;15.12;92.05;99595.03;5065760;28;20041;-87
2021/05/11 06:05:29;;;;;;;14.25;11.48;;;;;;;15.05;92.42;99592.00;5069829;28;20068;-86
2021/05/11 06:08:02;;;;;;;17.20;12.38;;;;;;;14.96;93.11;99593.56;5069732;28;20060;-87
2021/05/11 06:10:33;;;;;;;15.98;12.63;;;;;;;14.91;93.10;99579.75;5062894;28;20093;-86
2021/05/11 06:13:11;;;;;;;16.42;12.30;;;;;;;14.94;93.05;99568.84;5064967;28;20048;-87
2021/05/11 06:18:25;;;;;;;18.13;13.63;;;;;;;15.00;93.31;99559.50;5049564;28;20056;-86
2021/05/11 06:20:54;;;;;;;17.25;12.13;;;;;;;14.95;94.18;99559.03;5047613;28;20043;-86
2021/05/11 06:23:21;;;;;;;17.83;13.48;;;;;;;15.05;94.57;99565.34;5048084;28;20045;-87
2021/05/11 06:25:50;;;;;;;17.58;13.10;;;;;;;15.03;94.88;99567.28;5067035;28;20060;-87
2021/05/11 06:28:17;;;;;;;14.75;12.05;;;;;;;15.17;94.14;99587.53;5047548;28;20061;-87
2021/05/11 06:30:44;;;;;;;12.70;10.63;;;;;;;15.25;91.90;99569.97;5063276;28;20082;-87
2021/05/11 06:33:13;;;;;;;14.98;11.68;;;;;;;15.24;91.67;99546.06;5068897;28;20033;-87
2021/05/11 06:35:44;;;;;;;13.43;10.03;;;;;;;15.40;91.58;99568.72;5069601;28;20056;-86
2021/05/11 06:38:10;;;;;;;10.45;9.02;;;;;;;15.28;90.83;99563.50;5064645;28;20480;-86
2021/05/11 06:40:41;;;;;;;12.60;8.93;;;;;;;15.25;91.15;99575.28;5071557;28;20038;-87
2021/05/11 06:43:27;;;;;;;8.52;7.38;;;;;;;15.26;89.77;99582.31;5061809;28;20045;-86
2021/05/11 06:54:03;;;;;;;8.30;6.70;;;;;;;15.17;89.44;99587.53;5069015;28;20036;-87
2021/05/11 06:56:33;;;;;;;8.75;7.30;;;;;;;15.08;90.04;99600.63;5050019;28;20036;-87
2021/05/11 06:58:59;;;;;;;10.80;7.93;;;;;;;15.03;90.91;99615.25;5068453;28;20153;-86
2021/05/11 07:01:30;;;;;;;8.15;6.80;;;;;;;14.90;92.23;99617.19;5068223;28;20039;-86
2021/05/11 07:03:57;;;;;;;12.90;9.60;;;;;;;14.78;92.81;99610.13;5046465;28;20052;-87
2021/05/11 07:06:27;;;;;;;13.13;10.45;;;;;;;14.81;93.04;99608.06;5051067;28;20052;-85
2021/05/11 07:08:59;;;;;;;15.95;11.77;;;;;;;14.90;93.54;99599.38;5068974;28;20045;-86
2021/05/11 07:14:22;;;;;;;15.32;12.23;;;;;;;14.98;93.14;99572.97;5028542;28;20064;-87
2021/05/11 07:16:55;;;;;;;16.15;12.27;;;;;;;15.00;92.84;99562.19;5064014;28;20106;-87
2021/05/11 07:19:27;;;;;;;15.80;11.70;;;;;;;15.08;92.85;99567.78;5052947;28;20416;-87
2021/05/11 07:22:00;;;;;;;15.90;12.13;;;;;;;15.18;93.13;99557.22;5062274;28;20076;-86
2021/05/11 07:24:27;;;;;;;15.45;10.40;;;;;;;15.29;92.54;99571.38;5052553;28;20075;-86
2021/05/11 07:32:09;;;;;;;14.85;11.40;;;;;;;15.70;92.13;99544.09;5059995;28;20095;-86
2021/05/11 07:34:41;;;;;;;15.02;12.15;;;;;;;15.81;91.22;99542.34;5069784;28;20041;-86
2021/05/11 07:37:11;;;;;;;15.07;11.32;;;;;;;15.76;90.70;99559.59;5056942;28;20068;-86
2021/05/11 07:39:40;;;;;;;13.90;11.65;;;;;;;15.77;89.29;99569.28;5056708;28;20064;-87
2021/05/11 07:42:08;;;;;;;14.50;11.68;;;;;;;15.72;88.21;99557.31;5078698;28;20033;-87
2021/05/11 07:44:37;;;;;;;14.30;11.90;;;;;;;15.76;88.55;99559.59;5055517;28;20053;-85
2021/05/11 07:47:13;;;;;;;13.30;11.25;;;;;;;15.91;87.64;99545.97;5064658;28;20035;-87
2021/05/11 08:22:16;;;;;;;9.07;6.75;;;;;;;16.66;77.76;99516.50;5045908;28;20045;-86
2021/05/11 08:29:37;;;;;;;9.68;6.60;;;;;;;16.68;79.15;99538.59;5055427;28;20128;-86
2021/05/11 08:32:07;;;;;;;8.13;6.35;;;;;;;16.84;79.79;99544.31;5047753;28;20503;-86
2021/05/11 08:34:42;;;;;;;6.95;6.20;;;;;;;17.00;78.88;99550.00;5052193;28;20049;-87
2021/05/11 08:37:15;;;;;;;8.52;6.53;;;;;;;17.22;78.48;99543.66;5049977;28;20120;-86
2021/05/11 08:39:45;;;;;;;5.97;5.05;;;;;;;17.49;77.29;99543.03;5038794;28;20160;-85
2021/05/11 08:42:12;;;;;;;5.70;4.53;;;;;;;17.75;74.25;99546.09;5056863;28;20057;-85
2021/05/11 08:44:39;;;;;;;5.43;4.93;;;;;;;17.93;73.55;99547.13;5057357;28;20092;-86
2021/05/11 08:47:07;;;;;;;5.57;5.03;;;;;;;18.06;73.33;99539.66;5061449;28;20067;-85
2021/05/11 08:49:35;;;;;;;7.10;6.25;;;;;;;18.19;73.06;99525.97;5048318;28;20049;-86
2021/05/11 08:55:12;;;;;;;7.07;6.38;;;;;;;18.18;72.84;99521.59;5053499;28;20052;-86
2021/05/11 09:06:50;;;;;;;4.55;3.80;;;;;;;18.08;72.46;99515.41;5027859;28;20044;-86
2021/05/11 09:13:51;;;;;;;8.73;4.25;;;;;;;18.11;71.28;99501.69;5055562;28;20118;-86
2021/05/11 09:15:42;;;;;;;4.85;4.45;;;;;;;17.97;70.78;99507.47;5056329;28;20052;-86
2021/05/11 09:23:44;;;;;;;5.00;4.50;;;;;;;18.28;69.69;99492.94;5036536;28;20104;-85
2021/05/11 09:26:48;;;;;;;3.83;3.53;;;;;;;18.36;68.90;99502.97;5045032;28;20500;-86
2021/05/11 09:32:40;;;;;;;5.95;4.22;;;;;;;18.90;68.57;99500.44;5062185;28;20117;-84
2021/05/11 09:54:17;;;;;;;4.88;4.38;;;;;;;19.74;65.22;99548.69;5051831;28;20084;-86
2021/05/11 09:55:35;;;;;;;4.70;4.20;;;;;;;20.02;64.22;99556.69;5051351;28;20052;-86
2021/05/11 09:58:21;;;;;;;4.97;4.30;;;;;;;20.17;62.44;99549.78;5037389;28;20047;-86
2021/05/11 10:49:29;;;;;;;1.67;1.58;;;;;;;19.86;60.75;99552.00;5008038;28;20023;-85
2021/05/11 10:52:26;;;;;;;2.60;2.00;;;;;;;19.72;61.01;99556.03;5011242;28;20042;-84
2021/05/11 10:55:16;;;;;;;2.60;2.40;;;;;;;19.38;62.05;99552.22;5052545;28;20104;-86
2021/05/11 11:00:22;;;;;;;4.00;2.28;;;;;;;19.42;63.66;99570.59;5059201;28;20147;-86
2021/05/11 11:03:14;;;;;;;2.20;1.98;;;;;;;19.27;63.21;99577.44;5066729;28;20068;-87
2021/05/11 11:05:46;;;;;;;2.30;2.03;;;;;;;18.96;63.11;99573.31;5069477;28;20045;-85
2021/05/11 11:08:38;;;;;;;2.25;2.00;;;;;;;18.87;63.65;99569.66;5044951;28;20460;-85
2021/05/11 11:11:11;;;;;;;2.78;1.92;;;;;;;18.87;63.44;99569.66;5037720;28;20068;-86
2021/05/11 11:13:47;;;;;;;2.28;1.90;;;;;;;18.69;64.00;99566.88;5051941;28;20849;-85
2021/05/11 11:16:16;;;;;;;3.63;2.05;;;;;;;18.63;65.28;99569.28;5060239;28;20049;-86
2021/05/11 11:18:44;;;;;;;2.42;2.13;;;;;;;18.41;66.38;99544.44;5039756;28;20045;-84
2021/05/11 11:23:57;;;;;;;2.45;1.90;;;;;;;18.57;67.04;99559.94;5064251;28;20053;-84
2021/05/11 11:26:30;;;;;;;3.28;2.40;;;;;;;18.70;66.52;99554.31;5067304;28;20524;-85
2021/05/11 11:29:02;;;;;;;3.63;2.03;;;;;;;18.76;65.83;99551.03;5060916;28;20081;-86
2021/05/11 11:31:33;;;;;;;2.25;2.05;;;;;;;18.82;65.70;99559.38;5055410;28;20044;-87
2021/05/11 11:34:18;;;;;;;2.88;2.50;;;;;;;18.94;65.14;99560.03;5065161;28;20715;-86
2021/05/11 11:36:58;;;;;;;4.07;2.88;;;;;;;19.13;65.55;99559.97;5071827;28;20069;-87
2021/05/11 11:39:30;;;;;;;2.33;2.13;;;;;;;19.33;62.83;99559.91;5044941;28;20048;-86
2021/05/11 11:42:00;;;;;;;2.53;2.33;;;;;;;19.61;63.60;99567.84;5053819;28;20044;-87
2021/05/11 11:44:41;;;;;;;2.08;1.80;;;;;;;19.90;62.54;99553.41;5065605;28;20052;-86
2021/05/11 11:47:10;;;;;;;2.13;2.00;;;;;;;20.21;59.95;99548.50;5071446;28;20478;-84
2021/05/11 11:49:44;;;;;;;2.08;1.95;;;;;;;20.34;59.14;99535.50;5069427;28;20211;-84
2021/05/11 11:52:31;;;;;;;3.00;2.30;;;;;;;20.45;56.57;99543.38;5060559;28;20053;-85
2021/05/11 11:58:11;;;;;;;2.65;2.15;;;;;;;20.61;57.77;99556.97;5063522;28;20055;-86
2021/05/11 12:00:35;;;;;;;2.25;2.05;;;;;;;20.66;57.93;99548.41;5060478;28;20379;-85
2021/05/11 12:03:09;;;;;;;2.42;1.92;;;;;;;20.71;58.22;99542.56;5055685;28;20060;-86
2021/05/11 12:05:41;;;;;;;2.72;1.70;;;;;;;20.84;57.38;99532.22;5058554;28;20044;-85
2021/05/11 12:08:28;;;;;;;1.90;1.80;;;;;;;21.10;56.74;99516.88;5052714;28;20404;-86
2021/05/11 12:11:06;;;;;;;1.70;1.60;;;;;;;21.33;56.17;99539.59;5050391;28;20076;-88
2021/05/11 12:13:36;;;;;;;3.28;2.15;;;;;;;21.46;56.13;99538.28;5053901;28;20059;-87
2021/05/11 12:16:08;;;;;;;2.40;2.20;;;;;;;21.37;55.69;99555.44;5042711;28;20462;-85
2021/05/11 12:18:37;;;;;;;2.03;1.92;;;;;;;21.13;56.68;99548.88;5058997;28;20064;-85
2021/05/11 12:21:06;;;;;;;2.33;2.13;;;;;;;20.97;57.14;99535.31;5050866;28;20069;-87
2021/05/11 12:23:40;;;;;;;2.40;1.92;;;;;;;20.87;57.22;99548.06;5061112;28;20060;-88
2021/05/11 12:26:07;;;;;;;3.67;2.20;;;;;;;20.76;58.12;99548.31;5066649;28;20108;-87
2021/05/11 12:28:45;;;;;;;1.90;1.80;;;;;;;20.61;58.39;99556.97;5068914;28;20112;-85
2021/05/11 12:31:14;;;;;;;2.13;1.92;;;;;;;20.40;57.03;99558.28;5068372;28;20049;-85
2021/05/11 12:33:44;;;;;;;4.60;1.90;;;;;;;20.18;58.17;99557.72;5065237;28;20107;-86
2021/05/11 12:36:23;;;;;;;3.65;1.95;;;;;;;20.16;58.72;99569.59;5069528;28;20042;-85
2021/05/11 12:39:11;;;;;;;3.30;1.90;;;;;;;20.05;59.56;99578.75;5047967;28;20045;-84
2021/05/11 12:41:46;;;;;;;2.40;1.90;;;;;;;19.87;59.94;99578.72;5061045;28;20061;-85
2021/05/11 12:44:30;;;;;;;1.92;1.83;;;;;;;19.83;60.42;99585.38;5055479;28;20053;-86
2021/05/11 12:47:01;;;;;;;2.70;2.08;;;;;;;19.69;59.92;99583.19;5060189;28;20056;-86
2021/05/11 12:49:29;;;;;;;2.13;1.92;;;;;;;19.66;61.05;99593.44;5050621;28;20053;-85
2021/05/11 12:51:59;;;;;;;2.50;1.70;;;;;;;19.62;62.06;99600.94;5046280;28;20105;-85
2021/05/11 12:54:42;;;;;;;1.63;1.30;;;;;;;19.51;62.48;99611.88;5035080;28;20053;-86
2021/05/11 13:02:32;;;;;;;3.47;1.30;;;;;;;19.01;62.42;99609.44;5062507;28;20028;-86
2021/05/11 13:25:29;;;;;;;4.20;1.20;;;;;;;17.76;65.22;99569.22;5013866;28;20034;-85
2021/05/11 13:28:08;;;;;;;1.58;0.98;;;;;;;17.65;65.30;99551.41;5062720;28;20092;-84
2021/05/11 13:30:59;;;;;;;1.10;0.90;;;;;;;17.60;66.12;99561.69;5060875;28;20082;-86
2021/05/11 13:33:56;;;;;;;3.10;2.17;;;;;;;17.55;67.16;99553.19;5067885;28;20051;-84
2021/05/11 13:36:25;;;;;;;1.42;1.30;;;;;;;17.52;68.02;99548.09;5071106;28;20048;-86
2021/05/11 13:38:53;;;;;;;1.65;1.15;;;;;;;17.46;67.77;99541.50;5073357;28;20096;-84
2021/05/11 13:41:22;;;;;;;2.42;1.23;;;;;;;17.44;68.07;99531.91;5068812;28;20056;-86
2021/05/11 13:43:49;;;;;;;1.73;1.10;;;;;;;17.43;68.29;99543.59;5063251;28;20045;-86
2021/05/11 13:46:18;;;;;;;1.77;0.95;;;;;;;17.45;68.33;99549.66;5044365;28;20084;-86
2021/05/11 13:48:48;;;;;;;1.15;1.05;;;;;;;17.48;68.17;99549.34;5060597;28;20060;-86
2021/05/11 13:51:20;;;;;;;1.77;1.20;;;;;;;17.48;68.49;99557.38;5051861;28;20060;-85
2021/05/11 13:53:56;;;;;;;3.60;2.40;;;;;;;17.46;69.04;99551.34;5057509;28;20045;-85
2021/05/11 13:56:34;;;;;;;1.50;1.40;;;;;;;17.42;69.25;99540.06;5064600;28;20131;-85
2021/05/11 14:02:02;;;;;;;1.90;1.20;;;;;;;17.38;68.92;99543.13;5059595;28;20104;-86
2021/05/11 14:04:29;;;;;;;2.63;1.42;;;;;;;17.23;68.35;99523.09;5057971;28;20045;-85
2021/05/11 14:07:03;;;;;;;3.13;1.80;;;;;;;17.26;69.94;99529.03;5055678;28;20506;-85
2021/05/11 14:09:30;;;;;;;3.45;2.00;;;;;;;17.42;71.39;99531.19;5054494;28;20056;-85
2021/05/11 14:11:59;;;;;;;3.13;1.98;;;;;;;17.48;72.21;99531.47;5040979;28;20098;-85
2021/05/11 14:14:27;;;;;;;;;;;;;;;17.57;73.20;99526.28;5055135;28;20047;-84
2021/05/11 14:16:54;;;;;;;5.07;2.75;;;;;;;17.60;72.69;99520.66;5052815;28;19928;-86
2021/05/11 14:19:30;;;;;;;2.85;2.50;;;;;;;17.65;72.54;99527.31;5036896;28;20053;-84
2021/05/11 14:21:59;;;;;;;3.40;2.80;;;;;;;17.58;73.13;99528.84;5053397;28;20485;-84
2021/05/11 14:24:30;;;;;;;5.20;3.05;;;;;;;17.51;74.30;99530.34;5057085;28;20053;-85
2021/05/11 14:26:59;;;;;;;5.25;3.05;;;;;;;17.44;74.52;99546.13;5052130;28;20131;-86
2021/05/11 14:29:26;;;;;;;3.75;2.90;;;;;;;17.38;74.98;99540.47;5062045;28;20584;-86
2021/05/11 14:31:56;;;;;;;3.40;3.00;;;;;;;17.35;74.88;99546.06;5059664;28;20041;-84
2021/05/11 14:34:26;;;;;;;6.30;3.10;;;;;;;17.36;75.08;99558.47;5057961;28;20049;-87
2021/05/11 14:36:55;;;;;;;5.05;3.33;;;;;;;17.30;75.13;99565.25;5046960;28;20754;-85
2021/05/11 14:39:24;;;;;;;5.13;3.35;;;;;;;17.24;75.08;99562.25;5056182;28;20041;-86
2021/05/11 14:41:57;;;;;;;4.80;3.28;;;;;;;17.17;75.97;99557.41;5056730;28;20057;-85
2021/05/11 14:44:27;;;;;;;4.03;2.95;;;;;;;17.14;75.87;99562.22;5057753;28;20087;-86
2021/05/11 14:46:56;;;;;;;6.38;3.22;;;;;;;17.22;76.65;99570.41;5058387;28;20063;-85
2021/05/11 14:49:27;;;;;;;5.10;3.50;;;;;;;17.25;75.67;99577.31;5053386;28;20057;-85
2021/05/11 14:51:55;;;;;;;;;;;;;;;17.27;75.75;99578.88;5062713;28;20087;-85
2021/05/11 14:54:27;;;;;;;4.80;3.10;;;;;;;17.32;75.85;99579.31;5058695;28;19920;-85
2021/05/11 14:56:55;;;;;;;4.35;3.05;;;;;;;17.29;75.75;99579.59;5061883;28;20049;-84
2021/05/11 14:59:24;;;;;;;6.47;3.38;;;;;;;17.36;75.43;99590.59;5057425;28;20135;-84
2021/05/11 15:01:53;;;;;;;5.82;3.40;;;;;;;17.31;76.06;99585.66;5055872;28;20083;-85
2021/05/11 15:04:21;;;;;;;5.07;3.22;;;;;;;17.35;76.26;99589.75;5044071;28;20063;-83
2021/05/11 15:06:47;;;;;;;5.32;3.10;;;;;;;17.39;76.32;99587.66;5056031;28;20054;-84
2021/05/11 15:09:15;;;;;;;5.47;3.20;;;;;;;17.33;76.44;99586.34;5049931;28;20072;-84
2021/05/11 15:11:46;;;;;;;4.40;3.10;;;;;;;17.34;75.49;99595.22;5065465;28;20060;-83
2021/05/11 15:14:14;;;;;;;5.68;3.05;;;;;;;17.32;76.14;99595.34;5053387;28;20053;-83
2021/05/11 15:16:41;;;;;;;3.85;2.85;;;;;;;17.38;76.17;99591.31;5059464;28;20112;-83
2021/05/11 15:19:10;;;;;;;7.18;3.20;;;;;;;17.46;75.84;99584.31;5063861;28;20119;-86
2021/05/11 15:21:44;;;;;;;4.80;3.20;;;;;;;17.55;75.41;99590.66;5056108;28;20048;-84
2021/05/11 15:24:11;;;;;;;4.88;3.33;;;;;;;17.61;75.07;99592.81;5040381;28;20045;-83
2021/05/11 15:26:38;;;;;;;2.83;2.30;;;;;;;17.63;73.93;99598.84;5052663;28;20076;-85
2021/05/11 15:29:21;;;;;;;2.95;2.60;;;;;;;17.65;73.32;99599.59;5048484;28;20045;-83
2021/05/11 15:31:57;;;;;;;3.10;2.08;;;;;;;17.65;72.28;99602.28;5059872;28;20072;-84
2021/05/11 15:34:33;;;;;;;3.10;1.58;;;;;;;17.63;71.15;99609.56;5059114;28;20083;-86
2021/05/11 15:37:28;;;;;;;2.67;1.60;;;;;;;17.55;70.64;99606.72;5058867;28;20045;-86
2021/05/11 15:39:56;;;;;;;2.05;1.33;;;;;;;17.56;70.52;99607.59;5045809;28;20094;-84
2021/05/11 15:42:25;;;;;;;2.20;1.70;;;;;;;17.56;70.25;99597.72;5060023;28;20040;-84
2021/05/11 15:44:58;;;;;;;2.15;0.95;;;;;;;17.57;69.79;99614.63;5069359;28;20037;-85